Time;durP1;ratioP1;P1;durP2;ratioP2;P2;SDS_P1;SDS_P2;PMS_P1;PMS_P2;Temp;Humidity;BMP_temperature;BMP_pressure;BME280_temperature;BME280_humidity;BME280_pressure;Samples;Min_cycle;Max_cycle;Signal;HPM_P1;HPM_P2
2022/05/13 00:00:26;;;;;;;1.63;0.70;;;20.30;57.30;;;;;;5010685;28;20044;-72
2022/05/13 00:02:52;;;;;;;2.53;0.60;;;20.30;57.90;;;;;;4995203;28;20026;-71
2022/05/13 00:05:18;;;;;;;1.95;0.65;;;20.30;57.40;;;;;;4995640;28;20030;-72
2022/05/13 00:07:43;;;;;;;2.10;0.70;;;20.30;57.40;;;;;;4995327;28;20022;-72
2022/05/13 00:10:10;;;;;;;2.28;0.70;;;20.30;57.40;;;;;;5010285;28;20042;-72
2022/05/13 00:12:38;;;;;;;2.72;0.60;;;20.30;57.50;;;;;;5010490;28;20019;-72
2022/05/13 00:15:05;;;;;;;1.40;0.50;;;20.30;57.50;;;;;;5010378;28;20113;-71
2022/05/13 00:17:31;;;;;;;2.28;0.70;;;20.40;57.60;;;;;;4993950;28;20018;-71
2022/05/13 00:19:57;;;;;;;2.97;0.98;;;20.30;57.60;;;;;;4994972;28;20539;-71
2022/05/13 00:22:22;;;;;;;1.20;0.68;;;20.30;57.70;;;;;;4993968;28;20109;-71
2022/05/13 00:24:48;;;;;;;1.33;0.60;;;20.30;57.70;;;;;;4993740;28;20408;-71
2022/05/13 00:27:14;;;;;;;2.72;1.00;;;20.30;57.80;;;;;;4993772;28;20077;-72
2022/05/13 00:29:39;;;;;;;2.67;1.05;;;20.30;57.80;;;;;;4993844;28;20033;-71
2022/05/13 00:32:06;;;;;;;6.82;0.70;;;20.30;57.80;;;;;;4993561;28;20023;-71
2022/05/13 00:34:33;;;;;;;2.42;0.60;;;20.30;58.90;;;;;;4995173;28;20075;-71
2022/05/13 00:36:59;;;;;;;2.72;0.50;;;20.30;57.90;;;;;;4993652;28;20073;-72
2022/05/13 00:39:24;;;;;;;2.38;0.50;;;20.30;58.00;;;;;;4993702;28;20027;-72
2022/05/13 00:41:50;;;;;;;2.75;0.70;;;20.30;58.10;;;;;;4994711;28;20049;-71
2022/05/13 00:44:16;;;;;;;1.98;0.70;;;20.30;58.10;;;;;;4994175;28;20054;-71
2022/05/13 00:46:41;;;;;;;1.27;0.70;;;20.30;58.20;;;;;;4993504;28;20400;-72
2022/05/13 00:49:09;;;;;;;2.03;0.70;;;20.40;58.30;;;;;;4994603;28;20102;-71
2022/05/13 00:51:43;;;;;;;4.22;0.80;;;20.40;58.30;;;;;;4993311;28;20093;-72
2022/05/13 00:54:11;;;;;;;1.75;0.80;;;20.40;58.40;;;;;;4961151;28;20432;-72
2022/05/13 00:56:37;;;;;;;3.58;0.95;;;20.30;58.40;;;;;;4993413;28;20014;-71
2022/05/13 00:59:04;;;;;;;5.90;0.95;;;20.40;58.50;;;;;;4993152;28;20033;-71
2022/05/13 01:01:30;;;;;;;1.95;1.00;;;20.40;58.60;;;;;;4993232;28;20023;-71
2022/05/13 01:04:01;;;;;;;3.72;0.85;;;20.30;58.50;;;;;;4992247;28;20156;-71
2022/05/13 01:06:27;;;;;;;2.15;0.82;;;20.40;58.60;;;;;;4977052;28;20026;-71
2022/05/13 01:08:52;;;;;;;2.03;0.63;;;20.40;58.70;;;;;;4977039;28;20033;-71
2022/05/13 01:11:20;;;;;;;2.70;0.82;;;20.30;58.60;;;;;;4976883;28;20076;-71
2022/05/13 01:13:47;;;;;;;2.38;0.88;;;20.40;58.70;;;;;;4992910;28;20033;-71
2022/05/13 01:16:13;;;;;;;2.78;0.70;;;20.40;58.70;;;;;;4976595;28;20424;-71
2022/05/13 01:18:39;;;;;;;1.33;0.80;;;20.40;58.80;;;;;;4992963;28;20041;-72
2022/05/13 01:21:06;;;;;;;2.92;0.70;;;20.30;58.70;;;;;;4992528;28;20038;-71
2022/05/13 01:23:37;;;;;;;2.10;0.60;;;20.40;58.80;;;;;;4976677;28;20037;-71
2022/05/13 01:26:08;;;;;;;1.52;0.70;;;20.40;58.90;;;;;;4976493;28;20084;-71
2022/05/13 01:28:46;;;;;;;2.35;0.75;;;20.40;58.90;;;;;;4992581;28;20101;-71
2022/05/13 01:31:13;;;;;;;5.35;0.70;;;20.40;59.00;;;;;;4976590;28;20374;-71
2022/05/13 01:33:40;;;;;;;2.70;0.60;;;20.40;59.00;;;;;;4976705;28;20391;-71
2022/05/13 01:36:06;;;;;;;3.70;1.00;;;20.40;59.00;;;;;;4976329;28;20027;-71
2022/05/13 01:38:33;;;;;;;3.75;0.95;;;20.40;59.00;;;;;;5008766;28;20044;-71
2022/05/13 01:40:59;;;;;;;1.10;0.50;;;20.40;59.00;;;;;;4992422;28;20045;-72
2022/05/13 01:43:25;;;;;;;2.47;0.77;;;20.30;59.00;;;;;;5008500;28;20055;-72
2022/05/13 01:45:51;;;;;;;1.17;0.50;;;20.30;59.10;;;;;;4976441;28;20445;-72
2022/05/13 01:48:17;;;;;;;2.08;0.80;;;20.30;59.20;;;;;;4959967;28;20031;-72
2022/05/13 01:50:43;;;;;;;2.13;0.70;;;20.30;59.20;;;;;;4992358;28;20094;-72
2022/05/13 01:53:09;;;;;;;1.35;0.70;;;20.30;59.20;;;;;;4992359;28;20022;-72
2022/05/13 01:55:35;;;;;;;1.33;0.40;;;20.30;59.20;;;;;;4992461;28;20056;-72
2022/05/13 01:58:01;;;;;;;2.67;0.50;;;20.30;59.20;;;;;;4975784;28;20536;-71
2022/05/13 02:00:27;;;;;;;1.40;0.70;;;20.30;59.20;;;;;;4976174;28;20030;-72
2022/05/13 02:05:37;;;;;;;1.52;0.65;;;20.30;59.30;;;;;;4993450;28;20048;-72
2022/05/13 02:08:02;;;;;;;1.45;0.65;;;20.30;59.40;;;;;;4975869;28;20439;-71
2022/05/13 02:10:29;;;;;;;2.75;0.80;;;20.30;59.40;;;;;;4975808;28;20042;-72
2022/05/13 02:12:55;;;;;;;2.55;0.80;;;20.30;59.40;;;;;;4975870;28;20026;-72
2022/05/13 02:15:21;;;;;;;1.02;0.50;;;20.30;59.50;;;;;;4991636;28;20081;-71
2022/05/13 02:17:46;;;;;;;1.45;0.60;;;20.30;59.50;;;;;;4975936;28;20039;-71
2022/05/13 02:20:12;;;;;;;1.30;0.80;;;20.30;59.50;;;;;;4992853;28;20022;-71
2022/05/13 02:22:38;;;;;;;1.38;0.77;;;20.30;59.60;;;;;;4991949;28;20057;-71
2022/05/13 02:25:04;;;;;;;2.08;0.80;;;20.30;59.60;;;;;;4991683;28;20511;-71
2022/05/13 02:27:30;;;;;;;2.45;0.60;;;20.30;59.60;;;;;;4991528;28;20113;-71
2022/05/13 02:29:55;;;;;;;2.03;0.82;;;20.30;59.70;;;;;;4993052;28;20097;-71
2022/05/13 02:32:21;;;;;;;1.40;0.90;;;20.30;59.70;;;;;;4991594;28;20028;-72
2022/05/13 02:34:47;;;;;;;1.65;0.68;;;20.30;59.70;;;;;;4991767;28;20342;-71
2022/05/13 02:37:12;;;;;;;2.97;1.20;;;20.30;59.80;;;;;;4991746;28;20026;-71
2022/05/13 02:39:38;;;;;;;1.23;0.57;;;20.30;59.80;;;;;;4975649;28;20034;-71
2022/05/13 02:42:04;;;;;;;1.77;0.68;;;20.30;59.80;;;;;;4991389;28;20541;-71
2022/05/13 02:44:30;;;;;;;1.90;0.80;;;20.30;59.80;;;;;;5007781;28;20401;-71
2022/05/13 02:46:55;;;;;;;1.45;0.90;;;20.30;59.90;;;;;;4991470;28;20026;-71
2022/05/13 02:49:21;;;;;;;2.92;0.70;;;20.30;59.90;;;;;;4992743;28;20029;-71
2022/05/13 02:51:48;;;;;;;3.28;0.85;;;20.30;60.00;;;;;;4991634;28;20023;-71
2022/05/13 02:54:14;;;;;;;2.60;0.55;;;20.20;59.90;;;;;;4991633;28;20022;-71
2022/05/13 02:56:39;;;;;;;2.10;0.40;;;20.30;60.00;;;;;;4991347;28;20484;-71
2022/05/13 02:59:05;;;;;;;0.50;0.50;;;20.30;60.00;;;;;;4992987;28;20065;-71
2022/05/13 03:01:32;;;;;;;2.05;0.40;;;20.30;60.00;;;;;;4975373;28;20145;-71
2022/05/13 03:03:58;;;;;;;1.73;0.68;;;20.30;60.10;;;;;;4991750;28;20098;-71
2022/05/13 03:06:23;;;;;;;0.98;0.60;;;20.30;61.10;;;;;;4991222;28;20161;-71
2022/05/13 03:08:49;;;;;;;1.63;0.60;;;20.30;60.10;;;;;;4992699;28;20504;-71
2022/05/13 03:11:16;;;;;;;1.25;0.65;;;20.20;60.10;;;;;;4975078;28;20492;-71
2022/05/13 03:13:41;;;;;;;2.17;0.65;;;20.30;60.20;;;;;;4975384;28;20022;-71
2022/05/13 03:16:14;;;;;;;1.23;0.50;;;20.30;60.20;;;;;;4991245;28;20515;-71
2022/05/13 03:18:40;;;;;;;0.90;0.40;;;20.30;60.30;;;;;;4975775;28;20092;-71
2022/05/13 03:21:07;;;;;;;1.77;0.70;;;20.20;60.20;;;;;;5007189;28;20527;-72
2022/05/13 03:23:33;;;;;;;1.27;0.60;;;20.20;60.20;;;;;;4994691;28;20026;-71
2022/05/13 03:25:59;;;;;;;1.77;0.60;;;20.20;60.30;;;;;;5011957;28;20096;-71
2022/05/13 03:28:24;;;;;;;1.42;0.50;;;20.20;60.40;;;;;;4998291;28;20370;-71
2022/05/13 03:30:50;;;;;;;0.80;0.60;;;20.20;60.40;;;;;;4994892;28;20440;-71
2022/05/13 03:33:17;;;;;;;1.30;0.60;;;20.20;60.40;;;;;;5011246;28;20102;-71
2022/05/13 03:35:43;;;;;;;1.63;0.70;;;20.20;60.40;;;;;;4996059;28;20031;-71
2022/05/13 03:38:08;;;;;;;1.42;0.60;;;20.20;60.50;;;;;;4995728;28;20088;-71
2022/05/13 03:40:35;;;;;;;2.13;0.70;;;20.20;60.50;;;;;;4995835;28;20030;-71
2022/05/13 03:43:02;;;;;;;1.88;0.63;;;20.20;60.50;;;;;;4994322;28;20452;-71
2022/05/13 03:45:30;;;;;;;0.98;0.60;;;20.20;60.60;;;;;;5010834;28;20033;-71
2022/05/13 03:47:56;;;;;;;1.23;0.68;;;20.20;60.60;;;;;;5010681;28;20029;-71
2022/05/13 03:50:21;;;;;;;2.17;0.60;;;20.20;60.60;;;;;;4994388;28;20030;-71
2022/05/13 03:52:47;;;;;;;1.48;0.60;;;20.20;60.60;;;;;;5010814;28;20061;-71
2022/05/13 03:55:13;;;;;;;2.35;0.68;;;20.20;60.70;;;;;;5010764;28;20030;-71
2022/05/13 03:57:39;;;;;;;1.73;0.60;;;20.20;60.70;;;;;;4994323;28;20481;-71
2022/05/13 04:00:05;;;;;;;0.63;0.40;;;20.20;60.80;;;;;;5010695;28;20044;-71
2022/05/13 04:02:31;;;;;;;2.20;0.45;;;20.20;60.80;;;;;;4994255;28;20027;-71
2022/05/13 04:10:25;;;;;;;1.17;0.50;;;20.20;60.90;;;;;;5008072;28;20033;-71
2022/05/13 04:18:19;;;;;;;0.93;0.50;;;20.20;61.10;;;;;;4995340;28;20045;-71
2022/05/13 04:20:47;;;;;;;2.10;0.70;;;20.20;61.10;;;;;;5013539;28;20033;-71
2022/05/13 04:23:13;;;;;;;1.23;0.60;;;20.20;61.10;;;;;;5013401;28;20431;-71
2022/05/13 04:25:39;;;;;;;2.47;0.60;;;20.20;61.10;;;;;;5013409;28;20464;-71
2022/05/13 04:28:04;;;;;;;1.02;0.40;;;20.20;61.10;;;;;;5001219;28;20026;-71
2022/05/13 04:30:30;;;;;;;1.95;0.50;;;20.20;61.20;;;;;;4994800;28;20562;-71
2022/05/13 04:32:56;;;;;;;1.67;0.70;;;20.20;61.20;;;;;;4995132;28;20028;-71
2022/05/13 04:35:21;;;;;;;1.30;0.52;;;20.20;61.20;;;;;;5009997;28;20493;-71
2022/05/13 04:37:47;;;;;;;1.58;0.50;;;20.20;61.30;;;;;;4994490;28;20103;-71
2022/05/13 04:40:13;;;;;;;1.33;0.40;;;20.20;61.30;;;;;;4994893;28;20029;-71
2022/05/13 04:42:50;;;;;;;2.53;0.60;;;20.20;61.30;;;;;;4993426;28;20436;-71
2022/05/13 04:45:24;;;;;;;1.20;0.50;;;20.20;61.40;;;;;;4994842;28;20034;-71
2022/05/13 04:50:40;;;;;;;1.52;0.57;;;20.20;61.40;;;;;;5007443;28;20026;-71
2022/05/13 04:53:06;;;;;;;0.80;0.40;;;20.20;61.50;;;;;;4993122;28;20526;-71
2022/05/13 04:55:32;;;;;;;1.25;0.73;;;20.20;61.60;;;;;;5009424;28;20110;-71
2022/05/13 04:57:57;;;;;;;2.08;0.50;;;20.20;61.50;;;;;;4993331;28;20057;-71
2022/05/13 05:00:23;;;;;;;0.57;0.40;;;20.20;61.50;;;;;;4994265;28;20061;-71
2022/05/13 05:02:49;;;;;;;0.98;0.50;;;20.20;61.60;;;;;;4994492;28;20034;-71
2022/05/13 05:05:15;;;;;;;1.08;0.60;;;20.20;61.70;;;;;;4994412;28;20034;-71
2022/05/13 05:07:40;;;;;;;1.38;0.70;;;20.20;61.70;;;;;;5009143;28;20022;-70
2022/05/13 05:10:06;;;;;;;1.23;0.50;;;20.20;61.70;;;;;;5009509;28;20518;-70
2022/05/13 05:12:32;;;;;;;1.23;0.60;;;20.20;61.70;;;;;;5009386;28;20037;-70
2022/05/13 05:14:58;;;;;;;1.25;0.70;;;20.20;61.80;;;;;;4994155;28;20030;-70
2022/05/13 05:17:23;;;;;;;0.90;0.57;;;20.20;61.80;;;;;;4994084;28;20400;-71
2022/05/13 05:19:49;;;;;;;0.68;0.32;;;20.20;61.80;;;;;;4995874;28;20021;-71
2022/05/13 05:22:15;;;;;;;1.70;0.60;;;20.20;61.80;;;;;;5012439;28;20042;-71
2022/05/13 05:24:40;;;;;;;2.13;0.50;;;20.20;61.80;;;;;;4996129;28;20026;-71
2022/05/13 05:27:09;;;;;;;1.25;0.77;;;20.20;61.90;;;;;;5007121;28;20385;-70
2022/05/13 05:29:36;;;;;;;0.68;0.50;;;20.20;61.90;;;;;;4993838;28;20034;-70
2022/05/13 05:32:02;;;;;;;0.93;0.50;;;20.20;61.90;;;;;;4992843;28;20030;-71
2022/05/13 05:34:28;;;;;;;1.38;0.40;;;20.10;61.90;;;;;;5008665;28;20033;-70
2022/05/13 05:36:53;;;;;;;1.33;0.55;;;20.10;61.90;;;;;;5008992;28;20022;-70
2022/05/13 05:39:19;;;;;;;1.10;0.60;;;20.10;61.90;;;;;;5009023;28;20048;-70
2022/05/13 05:41:44;;;;;;;0.80;0.50;;;20.10;61.90;;;;;;5008813;28;20041;-71
2022/05/13 05:44:10;;;;;;;1.27;0.55;;;20.20;62.00;;;;;;4993590;28;20151;-71
2022/05/13 05:46:36;;;;;;;1.27;0.43;;;20.20;62.00;;;;;;4993506;28;20070;-71
2022/05/13 05:49:02;;;;;;;1.35;0.50;;;20.10;62.00;;;;;;4993954;28;20077;-70
2022/05/13 05:51:29;;;;;;;0.57;0.45;;;20.10;62.10;;;;;;4989464;28;20046;-71
2022/05/13 05:59:24;;;;;;;4.80;2.20;;;20.10;61.50;;;;;;4990060;28;20037;-69
2022/05/13 06:01:50;;;;;;;2.83;1.88;;;19.90;60.80;;;;;;4990141;28;20062;-72
2022/05/13 06:04:15;;;;;;;6.13;2.20;;;19.80;60.60;;;;;;4991046;28;20057;-72
2022/05/13 06:06:41;;;;;;;7.82;1.83;;;19.70;60.50;;;;;;4991038;28;20030;-70
2022/05/13 06:09:08;;;;;;;4.47;2.20;;;19.50;60.40;;;;;;4993946;28;20030;-73
2022/05/13 06:11:33;;;;;;;2.75;2.42;;;19.40;60.20;;;;;;4992404;28;20022;-72
2022/05/13 06:13:59;;;;;;;5.22;2.45;;;19.40;60.10;;;;;;4993911;28;20026;-69
2022/05/13 06:16:26;;;;;;;5.28;2.55;;;19.30;60.20;;;;;;4992437;28;20034;-71
2022/05/13 06:18:52;;;;;;;2.75;2.55;;;19.20;60.10;;;;;;4992197;28;20026;-71
2022/05/13 06:21:17;;;;;;;3.30;2.45;;;19.20;60.10;;;;;;4991838;28;20034;-71
2022/05/13 06:23:43;;;;;;;3.03;2.28;;;19.10;60.00;;;;;;4992936;28;20038;-71
2022/05/13 06:26:09;;;;;;;4.30;2.60;;;19.10;60.00;;;;;;4991701;28;20027;-71
2022/05/13 06:28:34;;;;;;;2.95;2.38;;;19.10;59.90;;;;;;4991866;28;20030;-71
2022/05/13 06:31:00;;;;;;;3.25;2.78;;;19.00;59.90;;;;;;4993016;28;20023;-71
2022/05/13 06:33:26;;;;;;;3.22;2.80;;;19.00;59.80;;;;;;4968635;28;20023;-71
2022/05/13 06:35:52;;;;;;;3.63;3.03;;;18.90;59.70;;;;;;4990384;28;20034;-71
2022/05/13 06:38:20;;;;;;;4.03;2.58;;;18.90;59.80;;;;;;4989963;28;21122;-71
2022/05/13 06:40:53;;;;;;;4.05;3.10;;;18.80;59.70;;;;;;4990052;28;20066;-71
2022/05/13 06:43:19;;;;;;;4.00;2.83;;;18.80;59.60;;;;;;4989815;28;20050;-71
2022/05/13 06:45:45;;;;;;;4.65;3.20;;;18.80;59.70;;;;;;4973957;28;20033;-71
2022/05/13 06:48:11;;;;;;;5.40;3.47;;;18.80;59.80;;;;;;4990253;28;20022;-68
2022/05/13 06:50:36;;;;;;;7.28;3.40;;;18.70;59.70;;;;;;4991822;28;20031;-68
2022/05/13 06:53:02;;;;;;;8.40;4.13;;;18.70;59.80;;;;;;4974015;28;20026;-68
2022/05/13 06:55:29;;;;;;;9.93;3.90;;;18.70;59.80;;;;;;4989886;28;20045;-68
2022/05/13 06:57:54;;;;;;;6.40;3.70;;;18.70;59.80;;;;;;4991236;28;20492;-68
2022/05/13 07:00:20;;;;;;;5.78;3.33;;;18.70;59.90;;;;;;4991354;28;20037;-68
2022/05/13 07:02:46;;;;;;;9.82;3.78;;;18.70;59.90;;;;;;4995068;28;20057;-68
2022/05/13 07:05:12;;;;;;;11.43;3.85;;;18.70;59.90;;;;;;4995200;28;20026;-68
2022/05/13 07:07:39;;;;;;;6.88;3.47;;;18.70;60.00;;;;;;4994958;28;20021;-68
2022/05/13 07:10:05;;;;;;;5.13;3.13;;;18.60;59.90;;;;;;4979142;28;20026;-68
2022/05/13 07:12:31;;;;;;;5.75;2.90;;;18.60;59.90;;;;;;4996502;28;20025;-68
2022/05/13 07:14:56;;;;;;;10.98;3.17;;;18.60;60.00;;;;;;4995068;28;20108;-68
2022/05/13 07:17:22;;;;;;;6.78;3.13;;;18.60;60.00;;;;;;4994887;28;20035;-68
2022/05/13 07:19:48;;;;;;;6.50;2.70;;;18.60;60.00;;;;;;4995088;28;20022;-68
2022/05/13 07:22:13;;;;;;;8.30;2.67;;;18.60;60.00;;;;;;4995040;28;20492;-68
2022/05/13 07:24:39;;;;;;;4.78;2.55;;;18.60;60.00;;;;;;4994966;28;20034;-68
2022/05/13 07:27:05;;;;;;;7.75;2.67;;;18.50;60.00;;;;;;4996023;28;20026;-68
2022/05/13 07:29:31;;;;;;;6.63;2.40;;;18.50;60.10;;;;;;4995862;28;20027;-68
2022/05/13 07:31:57;;;;;;;4.53;2.00;;;18.50;60.10;;;;;;5011042;28;20019;-68
2022/05/13 07:34:22;;;;;;;2.35;1.85;;;18.50;60.10;;;;;;5011196;28;20045;-68
2022/05/13 07:36:53;;;;;;;6.35;2.65;;;18.50;60.10;;;;;;5010841;28;20058;-68
2022/05/13 07:42:05;;;;;;;4.88;2.05;;;18.50;60.10;;;;;;4981189;28;20587;-68
2022/05/13 07:44:31;;;;;;;5.80;2.25;;;18.40;60.00;;;;;;4995457;28;20047;-68
2022/05/13 07:46:56;;;;;;;4.65;1.98;;;18.40;60.00;;;;;;4994383;28;20035;-68
2022/05/13 07:49:22;;;;;;;3.72;2.28;;;18.40;60.00;;;;;;4996176;28;20038;-68
2022/05/13 07:51:47;;;;;;;4.45;2.05;;;18.40;60.00;;;;;;4995429;28;20026;-68
2022/05/13 07:54:13;;;;;;;7.50;2.17;;;18.40;60.00;;;;;;4978490;28;20098;-68
2022/05/13 07:56:39;;;;;;;4.30;1.55;;;18.30;60.00;;;;;;4995754;28;20452;-68
2022/05/13 07:59:04;;;;;;;2.38;1.50;;;18.30;60.00;;;;;;4995629;28;20034;-68
2022/05/13 08:01:30;;;;;;;4.80;1.65;;;18.30;60.00;;;;;;4995347;28;20022;-69
2022/05/13 08:03:56;;;;;;;4.80;1.90;;;18.30;60.00;;;;;;4994304;28;20035;-68
2022/05/13 08:06:22;;;;;;;3.25;1.50;;;18.30;60.10;;;;;;4978070;28;20429;-68
2022/05/13 08:08:55;;;;;;;3.55;1.50;;;18.30;59.90;;;;;;4977792;28;20022;-68
2022/05/13 08:11:22;;;;;;;2.97;1.25;;;18.30;59.90;;;;;;4995422;28;20544;-68
2022/05/13 08:13:47;;;;;;;4.82;1.35;;;18.30;59.80;;;;;;4977096;28;20388;-68
2022/05/13 08:16:15;;;;;;;4.03;1.40;;;18.30;59.80;;;;;;4994108;28;20037;-68
2022/05/13 08:18:41;;;;;;;4.78;1.55;;;18.30;59.80;;;;;;4978130;28;20026;-68
2022/05/13 08:21:07;;;;;;;3.17;1.42;;;18.30;59.90;;;;;;4993990;28;20091;-68
2022/05/13 08:23:33;;;;;;;2.40;1.00;;;18.30;59.70;;;;;;4978016;28;20027;-68
2022/05/13 08:25:59;;;;;;;2.33;1.13;;;18.30;59.60;;;;;;4995205;28;20033;-68
2022/05/13 08:28:25;;;;;;;4.28;1.38;;;18.20;59.60;;;;;;4994776;28;20022;-68
2022/05/13 08:30:51;;;;;;;3.28;1.30;;;18.20;59.50;;;;;;4993805;28;20101;-68
2022/05/13 08:33:17;;;;;;;1.10;0.80;;;18.20;59.50;;;;;;4995107;28;20105;-68
2022/05/13 08:35:46;;;;;;;2.92;1.30;;;18.30;59.60;;;;;;4993746;28;20026;-68
2022/05/13 08:38:12;;;;;;;2.47;0.90;;;18.20;59.40;;;;;;4993572;28;20106;-69
2022/05/13 08:40:43;;;;;;;2.88;1.00;;;18.20;59.30;;;;;;4977588;28;20022;-68
2022/05/13 08:43:14;;;;;;;3.47;1.02;;;18.20;59.30;;;;;;4994472;28;20054;-68
2022/05/13 08:45:40;;;;;;;2.20;1.08;;;18.20;59.20;;;;;;4977330;28;20021;-68
2022/05/13 08:48:08;;;;;;;3.30;1.10;;;18.20;59.20;;;;;;4977347;28;20025;-68
2022/05/13 08:50:39;;;;;;;1.67;0.98;;;18.20;59.20;;;;;;4993621;28;20081;-68
2022/05/13 08:53:19;;;;;;;4.25;1.58;;;18.20;59.20;;;;;;4993276;28;20488;-68
2022/05/13 08:55:49;;;;;;;2.30;1.00;;;18.20;59.10;;;;;;4993372;28;20117;-68
2022/05/13 08:58:30;;;;;;;4.50;1.08;;;18.30;59.20;;;;;;4993030;28;20034;-68
2022/05/13 09:00:57;;;;;;;3.38;0.77;;;18.20;58.80;;;;;;4993111;28;20374;-68
2022/05/13 09:03:36;;;;;;;4.28;1.00;;;18.20;58.90;;;;;;4993323;28;20027;-68
2022/05/13 09:06:37;;;;;;;2.70;1.17;;;18.20;58.90;;;;;;4992928;28;20108;-68
2022/05/13 09:09:04;;;;;;;1.77;0.95;;;18.20;58.70;;;;;;4990849;28;20038;-68
2022/05/13 09:11:38;;;;;;;2.30;0.80;;;18.20;58.90;;;;;;4993117;28;20485;-68
2022/05/13 09:14:45;;;;;;;1.70;0.73;;;18.30;58.80;;;;;;4992593;28;20026;-68
2022/05/13 09:17:34;;;;;;;4.22;1.02;;;18.20;58.40;;;;;;4989443;28;20096;-68
2022/05/13 09:20:00;;;;;;;0.90;0.55;;;18.20;58.30;;;;;;4993979;28;20081;-68
2022/05/13 09:22:39;;;;;;;1.10;0.68;;;18.20;58.50;;;;;;4994136;28;20027;-68
2022/05/13 09:25:05;;;;;;;1.25;0.70;;;18.20;58.30;;;;;;4992025;28;20057;-68
2022/05/13 09:27:45;;;;;;;3.30;0.80;;;18.20;58.40;;;;;;4993702;28;20022;-68
2022/05/13 09:30:12;;;;;;;1.27;0.57;;;18.20;57.90;;;;;;4992690;28;20030;-68
2022/05/13 09:32:37;;;;;;;1.38;0.50;;;18.20;58.20;;;;;;4992680;28;20022;-68
2022/05/13 09:35:29;;;;;;;2.70;0.80;;;18.20;58.10;;;;;;4976426;28;20149;-68
2022/05/13 09:37:55;;;;;;;1.33;0.70;;;18.20;57.70;;;;;;4978505;28;20559;-68
2022/05/13 09:40:25;;;;;;;2.00;0.60;;;18.20;57.90;;;;;;4993764;28;20058;-68
2022/05/13 09:42:53;;;;;;;1.35;0.70;;;18.20;57.80;;;;;;4991894;28;20022;-68
2022/05/13 09:45:25;;;;;;;0.85;0.50;;;18.10;57.80;;;;;;4992496;28;20033;-68
2022/05/13 09:48:04;;;;;;;2.00;0.80;;;18.20;57.90;;;;;;4976526;28;20022;-68
2022/05/13 09:50:35;;;;;;;2.08;0.70;;;18.20;57.60;;;;;;4992440;28;20030;-68
2022/05/13 09:53:06;;;;;;;2.95;0.60;;;18.20;57.60;;;;;;4992312;28;20136;-68
2022/05/13 09:55:34;;;;;;;2.83;0.55;;;18.20;57.60;;;;;;4992038;28;20165;-68
2022/05/13 09:58:02;;;;;;;0.75;0.55;;;18.20;57.50;;;;;;4992171;28;20025;-68
2022/05/13 10:00:35;;;;;;;5.57;0.50;;;18.20;57.50;;;;;;4992287;28;20080;-68
2022/05/13 10:03:20;;;;;;;2.05;0.60;;;18.20;57.40;;;;;;4991989;28;20030;-68
2022/05/13 10:06:12;;;;;;;1.00;0.50;;;18.30;56.90;;;;;;4992052;28;20044;-68
2022/05/13 10:08:47;;;;;;;4.93;0.82;;;18.30;56.70;;;;;;4991148;28;20030;-68
2022/05/13 10:13:59;;;;;;;0.73;0.60;;;18.20;57.20;;;;;;4993034;28;20034;-68
2022/05/13 10:16:40;;;;;;;1.05;0.50;;;18.20;57.20;;;;;;4976028;28;20073;-68
2022/05/13 10:19:07;;;;;;;3.35;0.90;;;18.20;56.80;;;;;;4993173;28;20026;-68
2022/05/13 10:21:42;;;;;;;1.23;0.55;;;18.20;57.00;;;;;;4975480;28;20413;-68
2022/05/13 10:24:27;;;;;;;0.80;0.55;;;18.20;56.80;;;;;;4976386;28;20105;-68
2022/05/13 10:26:53;;;;;;;1.05;0.40;;;18.20;56.70;;;;;;4991759;28;20038;-69
2022/05/13 10:29:41;;;;;;;1.90;0.60;;;18.30;57.10;;;;;;4975683;28;20098;-68
2022/05/13 10:32:42;;;;;;;1.40;0.55;;;18.30;57.00;;;;;;4991759;28;20041;-68
2022/05/13 10:35:10;;;;;;;2.60;0.68;;;18.30;56.40;;;;;;4938879;28;20445;-68
2022/05/13 10:37:53;;;;;;;1.20;0.60;;;18.30;56.80;;;;;;4939410;28;20045;-68
2022/05/13 10:40:19;;;;;;;1.38;0.80;;;18.30;56.40;;;;;;4971172;28;20039;-68
2022/05/13 10:42:59;;;;;;;1.42;0.85;;;18.30;56.70;;;;;;4955144;28;20106;-69
2022/05/13 10:45:25;;;;;;;1.75;0.45;;;18.30;56.50;;;;;;4939659;28;20046;-68
2022/05/13 10:48:04;;;;;;;0.98;0.50;;;18.30;56.60;;;;;;4939459;28;20102;-68
2022/05/13 10:50:34;;;;;;;1.88;0.70;;;18.30;56.30;;;;;;4955461;28;20031;-68
2022/05/13 10:53:07;;;;;;;0.70;0.40;;;18.30;56.60;;;;;;4953396;28;20505;-68
2022/05/13 10:55:32;;;;;;;;;;;18.40;56.60;;;;;;4974728;28;20034;-68
2022/05/13 10:58:06;;;;;;;2.13;0.50;;;18.30;55.90;;;;;;4990519;28;20383;-68
2022/05/13 11:00:34;;;;;;;2.10;0.63;;;18.30;56.60;;;;;;4990681;28;20038;-68
2022/05/13 11:03:14;;;;;;;1.85;0.43;;;18.30;56.50;;;;;;4974374;28;20023;-68
2022/05/13 11:05:42;;;;;;;1.60;0.60;;;18.40;56.30;;;;;;4990433;28;20624;-68
2022/05/13 11:08:23;;;;;;;0.40;0.30;;;18.30;56.40;;;;;;4974037;28;20528;-69
2022/05/13 11:11:19;;;;;;;1.15;0.40;;;18.30;56.10;;;;;;4974483;28;20034;-68
2022/05/13 11:14:14;;;;;;;1.30;0.40;;;18.40;56.10;;;;;;4983586;28;20560;-68
2022/05/13 11:16:49;;;;;;;1.58;0.40;;;18.30;55.80;;;;;;4951888;29;20046;-68
2022/05/13 11:19:26;;;;;;;0.50;0.50;;;18.30;56.30;;;;;;4935845;29;20489;-69
2022/05/13 11:22:05;;;;;;;0.50;0.40;;;18.30;56.30;;;;;;4935759;29;20143;-68
2022/05/13 11:27:41;;;;;;;;;;;18.30;56.30;;;;;;4952375;29;20033;-68
2022/05/13 11:30:10;;;;;;;0.90;0.40;;;18.30;56.00;;;;;;4935614;29;19910;-68
2022/05/13 11:32:49;;;;;;;1.33;0.40;;;18.30;56.60;;;;;;4936169;29;20064;-69
2022/05/13 11:35:53;;;;;;;1.55;0.60;;;18.40;56.40;;;;;;4920579;29;20035;-68
2022/05/13 11:38:24;;;;;;;2.92;0.70;;;18.40;56.10;;;;;;4951233;29;20122;-68
2022/05/13 11:40:56;;;;;;;2.05;0.30;;;18.40;56.30;;;;;;4935480;29;20063;-69
2022/05/13 11:43:43;;;;;;;1.60;0.60;;;18.40;56.30;;;;;;4921495;29;20051;-69
2022/05/13 11:46:21;;;;;;;0.88;0.43;;;18.50;55.90;;;;;;4951302;29;20043;-69
2022/05/13 11:48:47;;;;;;;1.10;0.43;;;18.40;56.10;;;;;;4953929;28;20063;-68
2022/05/13 11:51:21;;;;;;;1.10;0.50;;;18.40;56.20;;;;;;4938966;28;20035;-68
2022/05/13 11:54:00;;;;;;;0.93;0.43;;;18.40;56.10;;;;;;4968167;28;20065;-68
2022/05/13 11:56:26;;;;;;;0.80;0.40;;;18.50;56.20;;;;;;4975260;28;20026;-68
2022/05/13 11:59:03;;;;;;;0.63;0.50;;;18.50;56.10;;;;;;4976138;28;20081;-68
2022/05/13 12:01:37;;;;;;;1.80;0.40;;;18.50;56.00;;;;;;4975944;28;20417;-68
2022/05/13 12:04:12;;;;;;;0.77;0.40;;;18.50;56.00;;;;;;4976108;28;20057;-68
2022/05/13 12:06:50;;;;;;;1.58;0.45;;;18.50;56.00;;;;;;4975912;28;20035;-68
2022/05/13 12:09:39;;;;;;;1.50;0.55;;;18.50;55.90;;;;;;4976023;28;20023;-69
2022/05/13 12:12:22;;;;;;;2.85;0.60;;;18.60;55.80;;;;;;4990763;28;20085;-68
2022/05/13 12:15:25;;;;;;;0.77;0.50;;;18.60;56.00;;;;;;4958678;28;20019;-68
2022/05/13 12:17:57;;;;;;;3.60;0.70;;;18.60;55.80;;;;;;4956335;28;20047;-68
2022/05/13 12:20:26;;;;;;;2.33;0.43;;;18.50;56.00;;;;;;4955032;29;20035;-68
2022/05/13 12:23:03;;;;;;;3.33;0.50;;;18.50;56.00;;;;;;4956492;29;20103;-68
2022/05/13 12:25:34;;;;;;;1.00;0.45;;;18.60;56.00;;;;;;4971193;28;20027;-69
2022/05/13 12:28:11;;;;;;;2.03;0.50;;;18.60;56.00;;;;;;4956314;29;20398;-69
2022/05/13 12:30:39;;;;;;;2.45;0.50;;;18.60;56.00;;;;;;4955153;29;20155;-68
2022/05/13 12:33:20;;;;;;;0.47;0.30;;;18.60;55.90;;;;;;4954942;29;20027;-68
2022/05/13 12:39:00;;;;;;;0.88;0.40;;;18.60;55.80;;;;;;4968412;28;20065;-68
2022/05/13 12:41:28;;;;;;;1.00;0.50;;;18.60;55.60;;;;;;4956076;29;20031;-68
2022/05/13 12:44:06;;;;;;;0.82;0.40;;;18.60;55.80;;;;;;4973167;28;20046;-68
2022/05/13 12:46:45;;;;;;;1.05;0.50;;;18.60;55.90;;;;;;4994747;28;20026;-68
2022/05/13 12:49:26;;;;;;;2.00;0.65;;;18.70;55.70;;;;;;4993581;28;20026;-68
2022/05/13 12:52:10;;;;;;;0.70;0.30;;;18.60;55.70;;;;;;4999964;28;20049;-68
2022/05/13 12:54:46;;;;;;;1.13;0.60;;;18.70;55.50;;;;;;5014284;28;20026;-68
2022/05/13 12:57:14;;;;;;;1.13;0.40;;;18.70;55.70;;;;;;5012972;28;20018;-68
2022/05/13 12:59:41;;;;;;;0.73;0.40;;;18.70;55.70;;;;;;4995675;28;20037;-69
2022/05/13 13:02:07;;;;;;;1.15;0.45;;;18.70;55.70;;;;;;5012817;28;20053;-69
2022/05/13 13:04:35;;;;;;;0.38;0.20;;;18.70;55.60;;;;;;4996569;28;20061;-68
2022/05/13 13:07:11;;;;;;;1.75;0.40;;;18.70;55.50;;;;;;4996546;28;20030;-68
2022/05/13 13:09:44;;;;;;;2.03;0.50;;;18.80;55.40;;;;;;5012470;28;20036;-68
2022/05/13 13:12:27;;;;;;;0.90;0.50;;;18.80;55.50;;;;;;5013827;28;20077;-68
2022/05/13 13:15:15;;;;;;;1.27;0.57;;;18.80;55.20;;;;;;4995454;28;20026;-69
2022/05/13 13:17:58;;;;;;;0.88;0.52;;;18.90;55.50;;;;;;5007543;28;20061;-69
2022/05/13 13:20:25;;;;;;;;;;;18.80;55.30;;;;;;5009337;28;20027;-68
2022/05/13 13:22:54;;;;;;;1.45;0.63;;;18.80;55.20;;;;;;4992913;28;19905;-69
2022/05/13 13:25:30;;;;;;;1.17;0.52;;;18.80;55.70;;;;;;5009136;28;20101;-69
2022/05/13 13:27:59;;;;;;;1.58;0.52;;;18.90;55.60;;;;;;4994100;28;20026;-68
2022/05/13 13:30:25;;;;;;;1.48;0.60;;;18.90;55.60;;;;;;5008702;28;20014;-68
2022/05/13 13:32:51;;;;;;;1.17;0.50;;;18.90;55.50;;;;;;5008745;28;20018;-68